Terminal Aerodrome Forecast
Issued by NWS Melbourne, FL

Home | Current Version | Previous Version | Text Only | Print | Product List | Glossary On
Versions: 1 2 3 4 5 6 7 8 9 10 11 12 13 14 15 16 17 18
000
FTUS42 KMLB 041731
TAFMLB
TAF
KMLB 041731Z 0418/0518 07008KT P6SM VCTS SCT015 SCT035CB OVC080
      TEMPO 0418/0420 2SM TSRA BKN018 BKN035CB BKN050
     FM050000 05004KT P6SM VCSH SCT035 BKN100
     FM051400 36005KT P6SM FEW025 SCT150 BKN250=

USA.gov is the U.S. government's official web portal to all federal, state and local government web resources and services.